createdAt,value
2023-03-24T00:03:36.513Z,2.70
2023-03-24T00:08:38.032Z,2.50
2023-03-24T00:13:39.779Z,2.50
2023-03-24T00:18:41.480Z,2.88
2023-03-24T00:23:43.645Z,2.60
2023-03-24T00:28:46.040Z,3.37
2023-03-24T00:33:51.280Z,2.60
2023-03-24T00:38:53.284Z,2.50
2023-03-24T00:43:56.613Z,2.67
2023-03-24T00:49:02.493Z,2.45
2023-03-24T00:54:04.732Z,2.00
2023-03-24T00:59:06.233Z,2.47
2023-03-24T01:04:07.611Z,2.67
2023-03-24T01:09:10.459Z,2.47
2023-03-24T01:14:12.173Z,2.47
2023-03-24T01:19:14.230Z,2.80
2023-03-24T01:24:15.550Z,2.47
2023-03-24T01:29:17.047Z,2.63
2023-03-24T01:34:18.499Z,2.77
2023-03-24T01:39:20.007Z,2.40
2023-03-24T01:44:29.453Z,2.40
2023-03-24T01:49:38.751Z,2.70
2023-03-24T01:54:41.706Z,2.30
2023-03-24T01:59:44.553Z,2.30
2023-03-24T02:04:48.491Z,2.40
2023-03-24T02:09:49.876Z,2.10
2023-03-24T02:14:51.507Z,2.50
2023-03-24T02:19:59.092Z,2.40
2023-03-24T02:25:03.230Z,2.78
2023-03-24T02:30:07.534Z,2.50
2023-03-24T02:35:27.786Z,2.33
2023-03-24T02:40:32.032Z,2.97
2023-03-24T02:45:35.731Z,2.77
2023-03-24T02:50:45.784Z,2.60
2023-03-24T02:55:55.252Z,2.67
2023-03-24T03:01:08.436Z,2.50
2023-03-24T03:06:22.174Z,3.65
2023-03-24T03:11:23.576Z,2.92
2023-03-24T03:16:39.145Z,2.93
2023-03-24T03:21:42.620Z,2.65
2023-03-24T03:26:45.680Z,2.40
2023-03-24T03:31:53.010Z,2.70
2023-03-24T03:36:56.883Z,2.53
2023-03-24T03:41:58.431Z,2.73
2023-03-24T03:47:00.068Z,2.80
2023-03-24T03:52:02.252Z,2.67
2023-03-24T03:57:03.663Z,2.50
2023-03-24T04:02:11.241Z,2.75
2023-03-24T04:07:22.692Z,2.50
2023-03-24T04:12:23.960Z,2.67
2023-03-24T04:17:31.572Z,2.90
2023-03-24T04:22:38.213Z,2.30
2023-03-24T04:28:00.899Z,2.80
2023-03-24T04:33:17.998Z,2.63
2023-03-24T04:38:25.556Z,2.57
2023-03-24T04:43:28.770Z,2.75
2023-03-24T04:48:30.367Z,3.17
2023-03-24T04:53:31.702Z,3.30
2023-03-24T04:58:32.960Z,3.20
2023-03-24T05:03:37.838Z,3.07
2023-03-24T05:08:39.505Z,3.45
2023-03-24T05:13:40.838Z,3.40
2023-03-24T05:18:42.113Z,3.10
2023-03-24T05:23:43.411Z,3.63
2023-03-24T05:28:44.694Z,2.93
2023-03-24T05:33:46.359Z,3.17
2023-03-24T05:38:47.649Z,3.33
2023-03-24T05:43:48.928Z,3.47
2023-03-24T05:48:51.214Z,3.22
2023-03-24T05:53:52.601Z,3.28
2023-03-24T05:58:54.263Z,3.33
2023-03-24T06:03:55.762Z,3.42
2023-03-24T06:08:58.363Z,3.67
2023-03-24T06:14:00.405Z,3.70
2023-03-24T06:19:01.685Z,3.78
2023-03-24T06:24:03.655Z,3.90
2023-03-24T06:29:04.998Z,3.90
2023-03-24T06:34:06.727Z,3.83
2023-03-24T06:39:08.002Z,4.30
2023-03-24T06:44:09.336Z,4.55
2023-03-24T06:49:10.914Z,4.07
2023-03-24T06:54:12.396Z,3.70
2023-03-24T06:59:13.722Z,3.40
2023-03-24T07:04:15.230Z,2.60
2023-03-24T07:09:16.458Z,3.08
2023-03-24T07:14:17.805Z,2.40
2023-03-24T07:19:19.259Z,2.60
2023-03-24T07:24:20.798Z,2.63
2023-03-24T07:29:22.108Z,5.43
2023-03-24T07:34:23.395Z,3.40
2023-03-24T07:39:24.676Z,15.85
2023-03-24T07:44:26.076Z,15.70
2023-03-24T07:49:27.800Z,18.50
2023-03-24T07:54:29.086Z,3.95
2023-03-24T07:59:30.668Z,2.60
2023-03-24T08:04:33.414Z,1.80
2023-03-24T08:09:34.708Z,3.90
2023-03-24T08:14:36.040Z,2.08
2023-03-24T08:19:45.385Z,2.10
2023-03-24T08:24:53.652Z,2.07
2023-03-24T08:29:54.940Z,2.50
2023-03-24T08:34:57.163Z,1.60
2023-03-24T08:39:58.753Z,1.80
2023-03-24T08:45:00.311Z,1.40
2023-03-24T08:50:01.574Z,1.50
2023-03-24T08:55:03.022Z,1.53
2023-03-24T09:00:11.818Z,1.38
2023-03-24T09:05:13.789Z,1.40
2023-03-24T09:10:15.291Z,1.47
2023-03-24T09:15:16.588Z,1.20
2023-03-24T09:20:18.555Z,1.20
2023-03-24T09:25:20.711Z,1.60
2023-03-24T09:30:22.168Z,1.40
2023-03-24T09:35:23.493Z,1.10
2023-03-24T09:40:26.368Z,1.03
2023-03-24T09:45:29.822Z,1.25
2023-03-24T09:50:38.908Z,1.30
2023-03-24T09:55:41.026Z,1.00
2023-03-24T10:00:42.900Z,1.10
2023-03-24T10:05:47.731Z,1.10
2023-03-24T10:10:52.006Z,1.63
2023-03-24T10:16:16.903Z,1.13
2023-03-24T10:21:24.002Z,1.10
2023-03-24T10:26:25.294Z,0.90
2023-03-24T10:31:29.016Z,1.38
2023-03-24T10:36:30.890Z,1.58
2023-03-24T10:41:32.727Z,0.97
2023-03-24T10:46:34.284Z,1.05
2023-03-24T10:51:36.527Z,1.08
2023-03-24T10:56:42.327Z,1.10
2023-03-24T11:01:43.885Z,1.08
2023-03-24T11:07:04.004Z,1.27
2023-03-24T11:12:05.353Z,1.20
2023-03-24T11:17:15.582Z,1.60
2023-03-24T11:22:16.837Z,1.30
2023-03-24T11:27:18.444Z,1.27
2023-03-24T11:32:29.917Z,1.10
2023-03-24T11:37:34.608Z,1.00
2023-03-24T11:42:40.817Z,1.17
2023-03-24T11:47:43.249Z,1.20
2023-03-24T11:52:56.584Z,1.05
2023-03-24T11:58:02.855Z,1.20
2023-03-24T12:03:16.323Z,1.30
2023-03-24T12:08:21.018Z,0.93
2023-03-24T12:13:51.688Z,0.93
2023-03-24T12:19:11.825Z,1.02
2023-03-24T12:24:27.581Z,0.93
2023-03-24T12:29:29.652Z,1.10
2023-03-24T12:34:44.824Z,0.90
2023-03-24T12:39:54.914Z,1.20
2023-03-24T12:44:59.091Z,1.10
2023-03-24T12:50:05.529Z,0.90
2023-03-24T12:55:25.859Z,1.00
2023-03-24T13:00:31.964Z,1.52
2023-03-24T13:05:35.509Z,0.80
2023-03-24T13:10:40.821Z,0.70
2023-03-24T13:15:47.826Z,1.00
2023-03-24T13:20:58.880Z,2.77
2023-03-24T13:26:10.291Z,1.58
2023-03-24T13:31:12.517Z,1.17
2023-03-24T13:36:39.819Z,1.30
2023-03-24T13:41:42.222Z,1.40
2023-03-24T13:46:59.060Z,1.10
2023-03-24T13:52:04.809Z,1.10
2023-03-24T13:57:15.012Z,1.17
2023-03-24T14:02:21.971Z,1.10
2023-03-24T14:07:44.243Z,1.40
2023-03-24T14:12:57.895Z,1.08
2023-03-24T14:18:18.019Z,1.50
2023-03-24T14:23:23.186Z,1.02
2023-03-24T14:28:38.544Z,1.23
2023-03-24T14:33:40.924Z,1.07
2023-03-24T14:38:44.095Z,1.13
2023-03-24T14:43:45.402Z,0.90
2023-03-24T14:49:05.812Z,0.80
2023-03-24T14:54:16.472Z,1.00
2023-03-24T14:59:25.531Z,0.70
2023-03-24T15:04:27.095Z,0.80
2023-03-24T15:09:28.371Z,0.85
2023-03-24T15:14:29.634Z,1.10
2023-03-24T15:19:31.204Z,1.00
2023-03-24T15:24:36.879Z,0.90
2023-03-24T15:29:39.488Z,1.10
2023-03-24T15:34:41.980Z,1.30
2023-03-24T15:39:48.140Z,1.10
2023-03-24T15:44:49.955Z,1.10
2023-03-24T15:49:53.597Z,0.80
2023-03-24T15:54:56.618Z,0.90
2023-03-24T15:59:57.980Z,0.80
2023-03-24T16:05:10.863Z,0.80
2023-03-24T16:10:27.713Z,0.88
2023-03-24T16:15:29.023Z,1.27
2023-03-24T16:20:30.303Z,0.95
2023-03-24T16:25:32.687Z,1.17
2023-03-24T16:30:37.826Z,1.30
2023-03-24T16:35:39.255Z,1.55
2023-03-24T16:40:44.653Z,1.20
2023-03-24T16:45:50.318Z,1.40
2023-03-24T16:50:52.192Z,2.40
2023-03-24T16:55:53.472Z,1.50
2023-03-24T17:00:57.426Z,3.40
2023-03-24T17:05:58.753Z,2.42
2023-03-24T17:11:00.045Z,4.73
2023-03-24T17:16:01.679Z,4.87
2023-03-24T17:21:03.145Z,1.40
2023-03-24T17:26:05.146Z,1.40
2023-03-24T17:31:06.513Z,1.00
2023-03-24T17:36:08.234Z,1.02
2023-03-24T17:41:09.852Z,1.27
2023-03-24T17:46:11.201Z,1.63
2023-03-24T17:51:12.480Z,1.95
2023-03-24T17:56:14.132Z,2.10
2023-03-24T18:01:18.131Z,2.70
2023-03-24T18:06:19.746Z,1.73
2023-03-24T18:11:21.021Z,1.20
2023-03-24T18:16:22.957Z,1.10
2023-03-24T18:21:24.513Z,2.00
2023-03-24T18:26:26.295Z,1.40
2023-03-24T18:31:27.778Z,2.00
2023-03-24T18:36:29.159Z,1.40
2023-03-24T18:41:30.925Z,1.20
2023-03-24T18:46:32.331Z,1.30
2023-03-24T18:51:33.666Z,1.40
2023-03-24T18:56:35.004Z,1.20
2023-03-24T19:01:36.476Z,1.73
2023-03-24T19:06:42.172Z,1.80
2023-03-24T19:11:44.989Z,1.38
2023-03-24T19:16:46.230Z,1.60
2023-03-24T19:21:47.516Z,1.40
2023-03-24T19:26:48.832Z,1.80
2023-03-24T19:31:50.270Z,2.17
2023-03-24T19:36:51.990Z,1.48
2023-03-24T19:41:53.468Z,1.40
2023-03-24T19:46:54.768Z,1.70
2023-03-24T19:51:57.168Z,2.10
2023-03-24T19:56:58.551Z,1.90
2023-03-24T20:01:59.910Z,1.63
2023-03-24T20:07:03.174Z,1.75
2023-03-24T20:12:04.828Z,1.87
2023-03-24T20:17:06.327Z,1.23
2023-03-24T20:22:07.645Z,1.70
2023-03-24T20:27:09.050Z,1.70
2023-03-24T20:32:10.516Z,1.60
2023-03-24T20:37:11.849Z,1.13
2023-03-24T20:42:13.252Z,1.42
2023-03-24T20:47:14.560Z,1.53
2023-03-24T20:52:15.882Z,0.90
2023-03-24T20:57:17.722Z,1.20
2023-03-24T21:02:19.130Z,1.30
2023-03-24T21:07:20.558Z,1.50
2023-03-24T21:12:21.871Z,1.10
2023-03-24T21:17:23.262Z,1.38
2023-03-24T21:22:24.939Z,1.30
2023-03-24T21:27:27.220Z,1.17
2023-03-24T21:32:28.563Z,1.58
2023-03-24T21:37:30.289Z,1.50
2023-03-24T21:42:34.728Z,1.30
2023-03-24T21:47:36.643Z,1.15
2023-03-24T21:52:41.523Z,1.33
2023-03-24T21:57:45.198Z,1.00
2023-03-24T22:02:49.563Z,1.33
2023-03-24T22:07:51.245Z,1.40
2023-03-24T22:12:53.240Z,1.35
2023-03-24T22:17:55.000Z,1.10
2023-03-24T22:22:56.310Z,1.40
2023-03-24T22:27:57.720Z,1.53
2023-03-24T22:32:58.996Z,0.85
2023-03-24T22:38:00.398Z,0.93
2023-03-24T22:43:01.636Z,0.70
2023-03-24T22:48:02.937Z,0.82
2023-03-24T22:53:04.284Z,0.60
2023-03-24T22:58:05.899Z,0.70
2023-03-24T23:03:07.321Z,0.70
2023-03-24T23:08:09.428Z,0.70
2023-03-24T23:13:10.864Z,0.55
2023-03-24T23:18:12.187Z,0.80
2023-03-24T23:23:13.847Z,0.60
2023-03-24T23:28:15.334Z,0.40
2023-03-24T23:33:16.707Z,0.80
2023-03-24T23:38:18.046Z,0.80
2023-03-24T23:43:19.337Z,0.73
2023-03-24T23:48:20.716Z,0.90
2023-03-24T23:53:21.979Z,0.55
2023-03-24T23:58:24.356Z,0.73
